Wetterstation Rottenburg Seebronn / 442m msl / http://mut-lambrecht.de
LETZTE AKTUALISIERUNG UM: 07:45 DATUM: Oktober 01 2022, time of next update: 07:50
Aktuelles WetterClear Aktuelle Temperatur 7.8°C (46.0°F), Apparent temp 6.2°C
Höchsttemperatur (seit Mitternacht)7.8°C um: 07:32 Tiefsttemperatur (seit Mitternacht)5.9°C um: 02:14
Windgeschwindigkeit (10 Minuten )4.4 kmh (2.4 kts) Windrichtung (Dir) (10 Minuten )SW (226°)
Windchill Temperatur 7.1°C Windspitzen (letzte Std)16.6 kmh (9.0 kts) um: 07:12
Windspitzen (seit Mitternacht)16.7 kmh (9.0 kts) um: 07:12 Höchstes Windmittel / Minute (seit Mitternacht)8.2 kmh (4.4 kts) um: 07:12
Regenmenge (letzte Std)0.0 mm Regenmenge (seit Mitternacht)0.0 mm (0.00 in.)---
Regenmenge diesen Monat 0.0 mm (0.00 in.) Regenmenge seit Jahresbeginn 20.0 mm (0.79 in.)
Höchste Regenmenge pro Minute (letzte Std)0.0 mm/min Höchste Regenmenge pro Stunde (letzte 6 Std)0.0 mm/stunde
Regenmenge Gestern 0.0 mm Taupunkt 5.3°C (Wet Bulb :6.7°C )
Luftfeuchtigkeit 84 %, Humidex 7.2°C Aktueller Luftdruck (auf Meereshöhe bezogen)1012.2 hPa
Luftdrucktendenz 0.0 hPa (letzte Std) Trend (letzte 1 Std)gleichbleibend
Luftdrucktendenz (letzte 12 Std)-0.9 hPa Luftdrucktendenz (letzte 6 Std)-1.8 hPa


Grafische Darstellung der letzten 24 Stunden.
Grafische Darstellung der letzten 48 Stunden.
Grafische Darstellung der letzten 72 Stunden.
Grafische Darstellung der letzten month.


Weather report/warning/Metars

Stuttgart-Echterdingen, Germany (EDDS) 48-41N 009-13E 391M
Oct 01, 2022 - 12:50 AM EDT / 2022.10.01 0450 UTC
Wind: from the S (190 degrees) at 8 MPH (7 KT) (direction variable):0
Visibility: greater than 7 mile(s):0
Temperature: 48 F (9 C)
Dew Point: 41 F (5 C)
Relative Humidity: 75%
Pressure (altimeter): 29.88 in. Hg (1012 hPa)
ob: EDDS 010450Z AUTO 19007KT 150V230 CAVOK 09/05 Q1012
cycle: 5
Karlsruhe, Baden Wurttemberg, Germany (EDSB) 48-46-43N 008-04-47E
Oct 01, 2022 - 12:50 AM EDT / 2022.10.01 0450 UTC
Wind: from the SSW (200 degrees) at 16 MPH (14 KT):0
Visibility: greater than 7 mile(s):0
Sky conditions: mostly clear
Weather: rain
Temperature: 51 F (11 C)
Dew Point: 46 F (8 C)
Relative Humidity: 81%
Pressure (altimeter): 29.88 in. Hg (1012 hPa)
ob: EDSB 010450Z 20014KT 9999 RA FEW048 11/08 Q1012
cycle: 5
Lahr, CAN-AFB, Germany (EDTL) 48-22-09N 007-49-40E
Oct 01, 2022 - 12:50 AM EDT / 2022.10.01 0450 UTC
Wind: from the S (180 degrees) at 14 MPH (12 KT):0
Visibility: greater than 7 mile(s):0
Sky conditions: mostly cloudy
Temperature: 51 F (11 C)
Dew Point: 44 F (7 C)
Relative Humidity: 76%
Pressure (altimeter): 29.91 in. Hg (1013 hPa)
ob: EDTL 010450Z AUTO 18012KT 9999 // FEW040/// SCT056/// BKN070/// 11/07 Q1013
cycle: 5
Laupheim, Germany (ETHL) 48-13N 009-55E 550M
Oct 01, 2022 - 12:20 AM EDT / 2022.10.01 0420 UTC
Wind: from the WSW (240 degrees) at 7 MPH (6 KT):0
Visibility: 2 mile(s):0
Temperature: 46 F (8 C)
Dew Point: 44 F (7 C)
Relative Humidity: 93%
Pressure (altimeter): 29.94 in. Hg (1014 hPa)
ob: ETHL 010420Z AUTO 24006KT 4800 // ////// 08/07 Q1014 ///
cycle: 4